sensor_id;sensor_type;location;lat;lon;timestamp;P1;durP1;ratioP1;P2;durP2;ratioP2
69197;SDS011;56311;50.298;8.514;2023-05-07T00:00:00;6.8;;;2.7;;
69197;SDS011;56311;50.298;8.514;2023-05-07T00:02:00;7.2;;;3.1;;
69197;SDS011;56311;50.298;8.514;2023-05-07T00:04:00;5.7;;;3.2;;
69197;SDS011;56311;50.298;8.514;2023-05-07T00:06:00;4.8;;;2.7;;
69197;SDS011;56311;50.298;8.514;2023-05-07T00:14:00;5.2;;;2.5;;
69197;SDS011;56311;50.298;8.514;2023-05-07T00:16:00;5.3;;;2.5;;
69197;SDS011;56311;50.298;8.514;2023-05-07T00:18:00;5.1;;;2.6;;
69197;SDS011;56311;50.298;8.514;2023-05-07T00:20:00;4.6;;;2.5;;
69197;SDS011;56311;50.298;8.514;2023-05-07T00:22:00;4.5;;;2.4;;
69197;SDS011;56311;50.298;8.514;2023-05-07T00:24:00;5.9;;;2.7;;
69197;SDS011;56311;50.298;8.514;2023-05-07T00:26:00;6.4;;;2.7;;
69197;SDS011;56311;50.298;8.514;2023-05-07T00:28:00;5.9;;;2.7;;
69197;SDS011;56311;50.298;8.514;2023-05-07T00:30:00;5.8;;;2.4;;
69197;SDS011;56311;50.298;8.514;2023-05-07T00:32:00;5.7;;;2.5;;
69197;SDS011;56311;50.298;8.514;2023-05-07T00:34:00;6.6;;;2.3;;
69197;SDS011;56311;50.298;8.514;2023-05-07T00:36:00;4.8;;;2.3;;
69197;SDS011;56311;50.298;8.514;2023-05-07T00:38:01;7.0;;;2.2;;
69197;SDS011;56311;50.298;8.514;2023-05-07T00:40:00;5.6;;;2.2;;
69197;SDS011;56311;50.298;8.514;2023-05-07T00:42:00;5.2;;;2.2;;
69197;SDS011;56311;50.298;8.514;2023-05-07T00:44:00;5.7;;;2.2;;
69197;SDS011;56311;50.298;8.514;2023-05-07T00:46:00;5.4;;;2.2;;
69197;SDS011;56311;50.298;8.514;2023-05-07T00:48:00;6.4;;;2.3;;
69197;SDS011;56311;50.298;8.514;2023-05-07T00:50:00;6.1;;;2.4;;
69197;SDS011;56311;50.298;8.514;2023-05-07T00:52:00;5.9;;;2.3;;
69197;SDS011;56311;50.298;8.514;2023-05-07T00:54:00;5.6;;;2.2;;
69197;SDS011;56311;50.298;8.514;2023-05-07T00:56:00;4.6;;;2.0;;
69197;SDS011;56311;50.298;8.514;2023-05-07T00:58:00;4.6;;;2.1;;
69197;SDS011;56311;50.298;8.514;2023-05-07T01:00:00;5.0;;;1.8;;
69197;SDS011;56311;50.298;8.514;2023-05-07T01:02:00;5.5;;;2.0;;
69197;SDS011;56311;50.298;8.514;2023-05-07T01:04:00;4.7;;;1.8;;
69197;SDS011;56311;50.298;8.514;2023-05-07T01:06:00;4.4;;;1.7;;
69197;SDS011;56311;50.298;8.514;2023-05-07T01:08:00;4.7;;;1.5;;
69197;SDS011;56311;50.298;8.514;2023-05-07T01:10:00;4.2;;;1.6;;
69197;SDS011;56311;50.298;8.514;2023-05-07T01:12:00;4.9;;;1.8;;
69197;SDS011;56311;50.298;8.514;2023-05-07T01:14:00;4.5;;;1.9;;
69197;SDS011;56311;50.298;8.514;2023-05-07T01:16:00;4.6;;;1.8;;
69197;SDS011;56311;50.298;8.514;2023-05-07T01:18:00;5.2;;;2.3;;
69197;SDS011;56311;50.298;8.514;2023-05-07T01:20:00;5.0;;;2.5;;
69197;SDS011;56311;50.298;8.514;2023-05-07T01:22:01;6.4;;;3.6;;
69197;SDS011;56311;50.298;8.514;2023-05-07T01:24:00;9.7;;;5.1;;
69197;SDS011;56311;50.298;8.514;2023-05-07T01:26:00;9.2;;;5.4;;
69197;SDS011;56311;50.298;8.514;2023-05-07T01:28:00;8.3;;;5.0;;
69197;SDS011;56311;50.298;8.514;2023-05-07T01:30:00;8.5;;;4.5;;
69197;SDS011;56311;50.298;8.514;2023-05-07T01:32:00;9.2;;;4.4;;
69197;SDS011;56311;50.298;8.514;2023-05-07T01:34:00;7.2;;;4.1;;
69197;SDS011;56311;50.298;8.514;2023-05-07T01:36:00;6.9;;;3.7;;
69197;SDS011;56311;50.298;8.514;2023-05-07T01:38:00;6.8;;;3.6;;
69197;SDS011;56311;50.298;8.514;2023-05-07T01:40:00;7.3;;;3.5;;
69197;SDS011;56311;50.298;8.514;2023-05-07T01:42:00;6.9;;;3.0;;
69197;SDS011;56311;50.298;8.514;2023-05-07T01:44:00;5.4;;;2.6;;
69197;SDS011;56311;50.298;8.514;2023-05-07T01:46:00;6.1;;;2.8;;
69197;SDS011;56311;50.298;8.514;2023-05-07T01:48:00;4.9;;;2.6;;
69197;SDS011;56311;50.298;8.514;2023-05-07T01:50:00;4.8;;;2.2;;
69197;SDS011;56311;50.298;8.514;2023-05-07T01:52:00;5.9;;;2.2;;
69197;SDS011;56311;50.298;8.514;2023-05-07T01:54:00;5.8;;;2.5;;
69197;SDS011;56311;50.298;8.514;2023-05-07T01:56:00;5.5;;;2.2;;
69197;SDS011;56311;50.298;8.514;2023-05-07T01:58:00;5.6;;;2.5;;
69197;SDS011;56311;50.298;8.514;2023-05-07T02:00:00;6.9;;;2.9;;
69197;SDS011;56311;50.298;8.514;2023-05-07T02:02:00;7.0;;;3.1;;
69197;SDS011;56311;50.298;8.514;2023-05-07T02:04:00;6.2;;;3.2;;
69197;SDS011;56311;50.298;8.514;2023-05-07T02:06:00;7.6;;;3.4;;
69197;SDS011;56311;50.298;8.514;2023-05-07T02:08:00;7.4;;;3.5;;
69197;SDS011;56311;50.298;8.514;2023-05-07T02:10:00;7.0;;;3.3;;
69197;SDS011;56311;50.298;8.514;2023-05-07T02:12:00;5.1;;;3.2;;
69197;SDS011;56311;50.298;8.514;2023-05-07T02:14:00;7.7;;;3.8;;
69197;SDS011;56311;50.298;8.514;2023-05-07T02:16:00;7.0;;;3.1;;
69197;SDS011;56311;50.298;8.514;2023-05-07T02:18:01;5.9;;;3.4;;
69197;SDS011;56311;50.298;8.514;2023-05-07T02:20:00;7.2;;;3.8;;
69197;SDS011;56311;50.298;8.514;2023-05-07T02:22:00;9.6;;;4.9;;
69197;SDS011;56311;50.298;8.514;2023-05-07T02:24:00;8.1;;;4.6;;
69197;SDS011;56311;50.298;8.514;2023-05-07T02:26:00;11.5;;;6.1;;
69197;SDS011;56311;50.298;8.514;2023-05-07T02:28:00;11.6;;;6.2;;
69197;SDS011;56311;50.298;8.514;2023-05-07T02:30:00;10.7;;;6.2;;
69197;SDS011;56311;50.298;8.514;2023-05-07T02:32:00;10.9;;;5.6;;
69197;SDS011;56311;50.298;8.514;2023-05-07T02:34:00;9.9;;;5.9;;
69197;SDS011;56311;50.298;8.514;2023-05-07T02:36:05;9.9;;;5.6;;
69197;SDS011;56311;50.298;8.514;2023-05-07T02:38:00;9.8;;;5.0;;
69197;SDS011;56311;50.298;8.514;2023-05-07T02:40:00;8.2;;;4.5;;
69197;SDS011;56311;50.298;8.514;2023-05-07T02:42:00;7.6;;;4.1;;
69197;SDS011;56311;50.298;8.514;2023-05-07T02:44:00;8.4;;;4.2;;
69197;SDS011;56311;50.298;8.514;2023-05-07T02:46:01;7.3;;;4.1;;
69197;SDS011;56311;50.298;8.514;2023-05-07T02:48:00;6.8;;;3.6;;
69197;SDS011;56311;50.298;8.514;2023-05-07T02:50:00;7.5;;;3.5;;
69197;SDS011;56311;50.298;8.514;2023-05-07T02:52:00;7.4;;;3.5;;
69197;SDS011;56311;50.298;8.514;2023-05-07T02:54:00;7.1;;;3.7;;
69197;SDS011;56311;50.298;8.514;2023-05-07T02:56:00;7.7;;;4.1;;
69197;SDS011;56311;50.298;8.514;2023-05-07T02:58:00;7.5;;;4.1;;
69197;SDS011;56311;50.298;8.514;2023-05-07T03:00:06;7.1;;;3.7;;
69197;SDS011;56311;50.298;8.514;2023-05-07T03:02:00;7.2;;;3.6;;
69197;SDS011;56311;50.298;8.514;2023-05-07T03:04:00;7.4;;;3.6;;
69197;SDS011;56311;50.298;8.514;2023-05-07T03:06:00;6.8;;;3.4;;
69197;SDS011;56311;50.298;8.514;2023-05-07T03:08:00;8.0;;;3.6;;
69197;SDS011;56311;50.298;8.514;2023-05-07T03:10:00;6.1;;;3.1;;
69197;SDS011;56311;50.298;8.514;2023-05-07T03:12:00;6.7;;;2.7;;
69197;SDS011;56311;50.298;8.514;2023-05-07T03:14:00;5.8;;;2.7;;
69197;SDS011;56311;50.298;8.514;2023-05-07T03:16:00;6.0;;;2.9;;
69197;SDS011;56311;50.298;8.514;2023-05-07T03:18:00;5.3;;;2.5;;
69197;SDS011;56311;50.298;8.514;2023-05-07T03:20:00;5.6;;;2.6;;
69197;SDS011;56311;50.298;8.514;2023-05-07T03:22:00;7.0;;;2.6;;
69197;SDS011;56311;50.298;8.514;2023-05-07T03:24:00;6.9;;;2.6;;
69197;SDS011;56311;50.298;8.514;2023-05-07T03:26:00;6.9;;;3.3;;
69197;SDS011;56311;50.298;8.514;2023-05-07T03:28:00;7.9;;;3.0;;
69197;SDS011;56311;50.298;8.514;2023-05-07T03:30:00;5.3;;;2.9;;
69197;SDS011;56311;50.298;8.514;2023-05-07T03:32:00;7.7;;;3.4;;
69197;SDS011;56311;50.298;8.514;2023-05-07T03:34:00;6.5;;;3.1;;
69197;SDS011;56311;50.298;8.514;2023-05-07T03:36:00;5.7;;;3.0;;
69197;SDS011;56311;50.298;8.514;2023-05-07T03:38:00;7.8;;;3.0;;
69197;SDS011;56311;50.298;8.514;2023-05-07T03:40:00;6.3;;;3.4;;
69197;SDS011;56311;50.298;8.514;2023-05-07T03:42:00;7.4;;;2.8;;
69197;SDS011;56311;50.298;8.514;2023-05-07T03:44:00;5.9;;;3.1;;
69197;SDS011;56311;50.298;8.514;2023-05-07T03:46:00;5.7;;;3.0;;
69197;SDS011;56311;50.298;8.514;2023-05-07T03:48:00;6.7;;;3.1;;
69197;SDS011;56311;50.298;8.514;2023-05-07T03:50:00;7.5;;;3.3;;
69197;SDS011;56311;50.298;8.514;2023-05-07T03:52:00;6.1;;;3.1;;
69197;SDS011;56311;50.298;8.514;2023-05-07T03:54:00;7.1;;;3.2;;
69197;SDS011;56311;50.298;8.514;2023-05-07T03:56:00;7.7;;;3.3;;
69197;SDS011;56311;50.298;8.514;2023-05-07T03:58:00;6.6;;;3.3;;
69197;SDS011;56311;50.298;8.514;2023-05-07T04:00:00;6.9;;;3.8;;
69197;SDS011;56311;50.298;8.514;2023-05-07T04:02:00;7.1;;;3.5;;
69197;SDS011;56311;50.298;8.514;2023-05-07T04:04:00;6.7;;;3.3;;
69197;SDS011;56311;50.298;8.514;2023-05-07T04:06:00;5.9;;;3.0;;
69197;SDS011;56311;50.298;8.514;2023-05-07T04:08:00;6.2;;;3.1;;
69197;SDS011;56311;50.298;8.514;2023-05-07T04:10:00;6.9;;;2.9;;
69197;SDS011;56311;50.298;8.514;2023-05-07T04:12:00;7.2;;;3.2;;
69197;SDS011;56311;50.298;8.514;2023-05-07T04:14:00;5.8;;;3.0;;
69197;SDS011;56311;50.298;8.514;2023-05-07T04:16:01;5.9;;;2.7;;
69197;SDS011;56311;50.298;8.514;2023-05-07T04:18:00;5.4;;;2.6;;
69197;SDS011;56311;50.298;8.514;2023-05-07T04:20:00;6.5;;;3.0;;
69197;SDS011;56311;50.298;8.514;2023-05-07T04:22:00;6.3;;;3.0;;
69197;SDS011;56311;50.298;8.514;2023-05-07T04:24:00;5.0;;;2.6;;
69197;SDS011;56311;50.298;8.514;2023-05-07T04:26:00;4.4;;;2.7;;
69197;SDS011;56311;50.298;8.514;2023-05-07T04:28:00;6.7;;;2.7;;
69197;SDS011;56311;50.298;8.514;2023-05-07T04:30:00;6.2;;;2.8;;
69197;SDS011;56311;50.298;8.514;2023-05-07T04:32:00;5.3;;;2.6;;
69197;SDS011;56311;50.298;8.514;2023-05-07T04:34:00;8.6;;;2.9;;
69197;SDS011;56311;50.298;8.514;2023-05-07T04:36:01;4.9;;;2.8;;
69197;SDS011;56311;50.298;8.514;2023-05-07T04:38:00;5.4;;;2.8;;
69197;SDS011;56311;50.298;8.514;2023-05-07T04:40:00;7.9;;;3.0;;
69197;SDS011;56311;50.298;8.514;2023-05-07T04:42:00;5.6;;;2.9;;
69197;SDS011;56311;50.298;8.514;2023-05-07T04:44:00;6.1;;;3.0;;
69197;SDS011;56311;50.298;8.514;2023-05-07T04:46:00;6.4;;;2.8;;
69197;SDS011;56311;50.298;8.514;2023-05-07T04:48:00;6.0;;;2.7;;
69197;SDS011;56311;50.298;8.514;2023-05-07T04:50:00;6.9;;;2.6;;
69197;SDS011;56311;50.298;8.514;2023-05-07T04:52:00;5.1;;;2.6;;
69197;SDS011;56311;50.298;8.514;2023-05-07T04:54:00;4.8;;;2.8;;
69197;SDS011;56311;50.298;8.514;2023-05-07T04:56:00;5.5;;;2.6;;
69197;SDS011;56311;50.298;8.514;2023-05-07T04:58:00;6.1;;;2.7;;
69197;SDS011;56311;50.298;8.514;2023-05-07T05:00:00;5.9;;;2.8;;
69197;SDS011;56311;50.298;8.514;2023-05-07T05:02:00;5.5;;;3.0;;
69197;SDS011;56311;50.298;8.514;2023-05-07T05:04:00;6.9;;;2.9;;
69197;SDS011;56311;50.298;8.514;2023-05-07T05:06:00;6.3;;;2.8;;
69197;SDS011;56311;50.298;8.514;2023-05-07T05:08:00;5.3;;;2.7;;
69197;SDS011;56311;50.298;8.514;2023-05-07T05:10:00;5.1;;;3.0;;
69197;SDS011;56311;50.298;8.514;2023-05-07T05:12:00;5.4;;;2.6;;
69197;SDS011;56311;50.298;8.514;2023-05-07T05:14:00;5.3;;;2.9;;
69197;SDS011;56311;50.298;8.514;2023-05-07T05:16:00;5.7;;;3.0;;
69197;SDS011;56311;50.298;8.514;2023-05-07T05:18:00;4.8;;;2.5;;
69197;SDS011;56311;50.298;8.514;2023-05-07T05:20:00;5.9;;;2.7;;
69197;SDS011;56311;50.298;8.514;2023-05-07T05:22:00;4.7;;;2.8;;
69197;SDS011;56311;50.298;8.514;2023-05-07T05:24:00;6.8;;;2.9;;
69197;SDS011;56311;50.298;8.514;2023-05-07T05:26:00;5.2;;;3.0;;
69197;SDS011;56311;50.298;8.514;2023-05-07T05:28:00;7.5;;;3.9;;
69197;SDS011;56311;50.298;8.514;2023-05-07T05:30:00;6.0;;;3.2;;
69197;SDS011;56311;50.298;8.514;2023-05-07T05:32:00;6.8;;;3.2;;
69197;SDS011;56311;50.298;8.514;2023-05-07T05:34:01;5.3;;;3.2;;
69197;SDS011;56311;50.298;8.514;2023-05-07T05:36:00;6.1;;;3.0;;
69197;SDS011;56311;50.298;8.514;2023-05-07T05:38:00;6.9;;;3.3;;
69197;SDS011;56311;50.298;8.514;2023-05-07T05:40:00;7.0;;;3.3;;
69197;SDS011;56311;50.298;8.514;2023-05-07T05:42:00;5.6;;;3.2;;
69197;SDS011;56311;50.298;8.514;2023-05-07T05:44:00;6.9;;;3.2;;
69197;SDS011;56311;50.298;8.514;2023-05-07T05:46:00;6.6;;;3.1;;
69197;SDS011;56311;50.298;8.514;2023-05-07T05:48:00;5.9;;;3.1;;
69197;SDS011;56311;50.298;8.514;2023-05-07T05:50:00;5.0;;;3.1;;
69197;SDS011;56311;50.298;8.514;2023-05-07T05:52:00;6.0;;;3.1;;
69197;SDS011;56311;50.298;8.514;2023-05-07T05:54:00;5.8;;;3.0;;
69197;SDS011;56311;50.298;8.514;2023-05-07T05:56:00;5.6;;;2.9;;
69197;SDS011;56311;50.298;8.514;2023-05-07T05:58:00;8.5;;;3.0;;
69197;SDS011;56311;50.298;8.514;2023-05-07T06:00:00;5.9;;;2.9;;
69197;SDS011;56311;50.298;8.514;2023-05-07T06:02:00;6.8;;;3.1;;
69197;SDS011;56311;50.298;8.514;2023-05-07T06:04:00;5.5;;;3.0;;
69197;SDS011;56311;50.298;8.514;2023-05-07T06:06:00;7.6;;;3.2;;
69197;SDS011;56311;50.298;8.514;2023-05-07T06:08:00;6.2;;;2.9;;
69197;SDS011;56311;50.298;8.514;2023-05-07T06:10:00;5.9;;;2.9;;
69197;SDS011;56311;50.298;8.514;2023-05-07T06:12:00;5.1;;;2.9;;
69197;SDS011;56311;50.298;8.514;2023-05-07T06:14:00;6.6;;;2.8;;
69197;SDS011;56311;50.298;8.514;2023-05-07T06:16:00;5.2;;;3.0;;
69197;SDS011;56311;50.298;8.514;2023-05-07T06:18:00;6.2;;;3.1;;
69197;SDS011;56311;50.298;8.514;2023-05-07T06:20:00;7.2;;;3.2;;
69197;SDS011;56311;50.298;8.514;2023-05-07T06:22:00;5.9;;;3.1;;
69197;SDS011;56311;50.298;8.514;2023-05-07T06:24:00;6.6;;;3.4;;
69197;SDS011;56311;50.298;8.514;2023-05-07T06:26:00;5.2;;;3.2;;
69197;SDS011;56311;50.298;8.514;2023-05-07T06:28:00;5.3;;;3.2;;
69197;SDS011;56311;50.298;8.514;2023-05-07T06:30:00;6.1;;;3.2;;
69197;SDS011;56311;50.298;8.514;2023-05-07T06:32:05;6.2;;;3.5;;
69197;SDS011;56311;50.298;8.514;2023-05-07T06:34:00;7.7;;;3.9;;
69197;SDS011;56311;50.298;8.514;2023-05-07T06:36:00;6.1;;;3.3;;
69197;SDS011;56311;50.298;8.514;2023-05-07T06:38:00;5.3;;;3.3;;
69197;SDS011;56311;50.298;8.514;2023-05-07T06:40:00;6.4;;;3.3;;
69197;SDS011;56311;50.298;8.514;2023-05-07T06:42:00;6.8;;;3.6;;
69197;SDS011;56311;50.298;8.514;2023-05-07T06:44:00;7.4;;;2.9;;
69197;SDS011;56311;50.298;8.514;2023-05-07T06:46:00;6.3;;;2.9;;
69197;SDS011;56311;50.298;8.514;2023-05-07T06:48:00;7.1;;;3.0;;
69197;SDS011;56311;50.298;8.514;2023-05-07T06:50:00;6.0;;;2.9;;
69197;SDS011;56311;50.298;8.514;2023-05-07T06:52:00;6.2;;;2.7;;
69197;SDS011;56311;50.298;8.514;2023-05-07T06:54:00;5.8;;;2.6;;
69197;SDS011;56311;50.298;8.514;2023-05-07T06:56:00;6.3;;;2.8;;
69197;SDS011;56311;50.298;8.514;2023-05-07T06:58:00;6.3;;;2.8;;
69197;SDS011;56311;50.298;8.514;2023-05-07T07:00:00;5.4;;;2.7;;
69197;SDS011;56311;50.298;8.514;2023-05-07T07:02:00;5.2;;;2.4;;
69197;SDS011;56311;50.298;8.514;2023-05-07T07:04:00;5.1;;;2.6;;
69197;SDS011;56311;50.298;8.514;2023-05-07T07:06:00;4.9;;;2.5;;
69197;SDS011;56311;50.298;8.514;2023-05-07T07:08:00;4.2;;;2.5;;
69197;SDS011;56311;50.298;8.514;2023-05-07T07:10:00;5.8;;;2.7;;
69197;SDS011;56311;50.298;8.514;2023-05-07T07:12:00;5.6;;;2.6;;
69197;SDS011;56311;50.298;8.514;2023-05-07T07:14:01;4.6;;;2.3;;
69197;SDS011;56311;50.298;8.514;2023-05-07T07:16:00;4.6;;;2.4;;
69197;SDS011;56311;50.298;8.514;2023-05-07T07:18:00;6.0;;;2.7;;
69197;SDS011;56311;50.298;8.514;2023-05-07T07:20:00;4.4;;;2.5;;
69197;SDS011;56311;50.298;8.514;2023-05-07T07:22:00;5.6;;;2.8;;
69197;SDS011;56311;50.298;8.514;2023-05-07T07:24:00;5.0;;;2.7;;
69197;SDS011;56311;50.298;8.514;2023-05-07T07:26:00;6.6;;;2.7;;
69197;SDS011;56311;50.298;8.514;2023-05-07T07:28:00;6.1;;;2.4;;
69197;SDS011;56311;50.298;8.514;2023-05-07T07:30:00;5.1;;;2.4;;
69197;SDS011;56311;50.298;8.514;2023-05-07T07:32:00;5.8;;;2.4;;
69197;SDS011;56311;50.298;8.514;2023-05-07T07:34:00;4.6;;;2.6;;
69197;SDS011;56311;50.298;8.514;2023-05-07T07:36:00;6.0;;;2.6;;
69197;SDS011;56311;50.298;8.514;2023-05-07T07:38:00;4.8;;;2.7;;
69197;SDS011;56311;50.298;8.514;2023-05-07T07:40:00;6.0;;;2.7;;
69197;SDS011;56311;50.298;8.514;2023-05-07T07:42:00;5.3;;;2.6;;
69197;SDS011;56311;50.298;8.514;2023-05-07T07:44:00;6.3;;;3.0;;
69197;SDS011;56311;50.298;8.514;2023-05-07T07:46:00;5.9;;;2.6;;
69197;SDS011;56311;50.298;8.514;2023-05-07T07:48:00;5.7;;;2.6;;
69197;SDS011;56311;50.298;8.514;2023-05-07T07:50:00;6.1;;;2.8;;
69197;SDS011;56311;50.298;8.514;2023-05-07T07:52:00;4.4;;;2.5;;
69197;SDS011;56311;50.298;8.514;2023-05-07T07:54:00;4.2;;;2.4;;
69197;SDS011;56311;50.298;8.514;2023-05-07T07:56:00;5.1;;;2.9;;
69197;SDS011;56311;50.298;8.514;2023-05-07T07:58:00;4.9;;;2.7;;
69197;SDS011;56311;50.298;8.514;2023-05-07T08:00:00;4.3;;;2.7;;
69197;SDS011;56311;50.298;8.514;2023-05-07T08:02:00;5.3;;;2.9;;
69197;SDS011;56311;50.298;8.514;2023-05-07T08:04:00;6.1;;;2.7;;
69197;SDS011;56311;50.298;8.514;2023-05-07T08:06:00;6.3;;;2.9;;
69197;SDS011;56311;50.298;8.514;2023-05-07T08:08:00;6.4;;;2.9;;
69197;SDS011;56311;50.298;8.514;2023-05-07T08:10:00;5.9;;;3.3;;
69197;SDS011;56311;50.298;8.514;2023-05-07T08:12:00;4.7;;;2.9;;
69197;SDS011;56311;50.298;8.514;2023-05-07T08:14:00;5.1;;;2.9;;
69197;SDS011;56311;50.298;8.514;2023-05-07T08:16:00;5.1;;;2.7;;
69197;SDS011;56311;50.298;8.514;2023-05-07T08:18:01;5.1;;;2.9;;
69197;SDS011;56311;50.298;8.514;2023-05-07T08:20:00;5.8;;;3.0;;
69197;SDS011;56311;50.298;8.514;2023-05-07T08:22:00;5.7;;;3.2;;
69197;SDS011;56311;50.298;8.514;2023-05-07T08:24:00;5.4;;;3.2;;
69197;SDS011;56311;50.298;8.514;2023-05-07T08:26:00;5.2;;;3.4;;
69197;SDS011;56311;50.298;8.514;2023-05-07T08:28:01;7.4;;;3.9;;
69197;SDS011;56311;50.298;8.514;2023-05-07T08:30:00;7.4;;;3.6;;
69197;SDS011;56311;50.298;8.514;2023-05-07T08:32:00;8.4;;;3.6;;
69197;SDS011;56311;50.298;8.514;2023-05-07T08:34:00;7.4;;;3.5;;
69197;SDS011;56311;50.298;8.514;2023-05-07T08:36:00;7.3;;;3.5;;
69197;SDS011;56311;50.298;8.514;2023-05-07T08:38:00;5.0;;;3.0;;
69197;SDS011;56311;50.298;8.514;2023-05-07T08:40:00;6.4;;;3.6;;
69197;SDS011;56311;50.298;8.514;2023-05-07T08:42:00;6.3;;;4.1;;
69197;SDS011;56311;50.298;8.514;2023-05-07T08:44:00;6.3;;;3.8;;
69197;SDS011;56311;50.298;8.514;2023-05-07T08:46:00;5.7;;;3.8;;
69197;SDS011;56311;50.298;8.514;2023-05-07T08:48:01;6.8;;;3.7;;
69197;SDS011;56311;50.298;8.514;2023-05-07T08:50:00;5.1;;;3.0;;
69197;SDS011;56311;50.298;8.514;2023-05-07T08:52:00;6.0;;;2.8;;
69197;SDS011;56311;50.298;8.514;2023-05-07T08:54:00;4.9;;;2.6;;
69197;SDS011;56311;50.298;8.514;2023-05-07T08:56:00;6.3;;;2.7;;
69197;SDS011;56311;50.298;8.514;2023-05-07T08:58:00;3.6;;;2.2;;
69197;SDS011;56311;50.298;8.514;2023-05-07T09:00:00;6.3;;;2.7;;
69197;SDS011;56311;50.298;8.514;2023-05-07T09:02:00;4.9;;;2.7;;
69197;SDS011;56311;50.298;8.514;2023-05-07T09:04:00;4.6;;;2.7;;
69197;SDS011;56311;50.298;8.514;2023-05-07T09:06:00;6.4;;;2.9;;
69197;SDS011;56311;50.298;8.514;2023-05-07T09:08:01;6.4;;;2.5;;
69197;SDS011;56311;50.298;8.514;2023-05-07T09:10:01;5.2;;;2.9;;
69197;SDS011;56311;50.298;8.514;2023-05-07T09:12:00;7.5;;;3.0;;
69197;SDS011;56311;50.298;8.514;2023-05-07T09:14:00;4.1;;;2.5;;
69197;SDS011;56311;50.298;8.514;2023-05-07T09:16:09;4.6;;;2.6;;
69197;SDS011;56311;50.298;8.514;2023-05-07T09:18:00;5.4;;;2.6;;
69197;SDS011;56311;50.298;8.514;2023-05-07T09:20:02;5.4;;;2.9;;
69197;SDS011;56311;50.298;8.514;2023-05-07T09:22:00;5.2;;;3.2;;
69197;SDS011;56311;50.298;8.514;2023-05-07T09:24:00;5.8;;;3.0;;
69197;SDS011;56311;50.298;8.514;2023-05-07T09:26:01;6.2;;;2.9;;
69197;SDS011;56311;50.298;8.514;2023-05-07T09:28:01;5.4;;;3.1;;
69197;SDS011;56311;50.298;8.514;2023-05-07T09:30:02;4.6;;;3.1;;
69197;SDS011;56311;50.298;8.514;2023-05-07T09:32:00;5.6;;;3.1;;
69197;SDS011;56311;50.298;8.514;2023-05-07T09:34:00;5.1;;;3.0;;
69197;SDS011;56311;50.298;8.514;2023-05-07T09:36:02;5.4;;;3.1;;
69197;SDS011;56311;50.298;8.514;2023-05-07T09:38:00;7.6;;;3.3;;
69197;SDS011;56311;50.298;8.514;2023-05-07T09:40:00;5.6;;;3.2;;
69197;SDS011;56311;50.298;8.514;2023-05-07T09:42:00;5.5;;;3.1;;
69197;SDS011;56311;50.298;8.514;2023-05-07T09:44:00;4.7;;;3.4;;
69197;SDS011;56311;50.298;8.514;2023-05-07T09:46:02;4.8;;;2.9;;
69197;SDS011;56311;50.298;8.514;2023-05-07T09:48:00;6.1;;;3.0;;
69197;SDS011;56311;50.298;8.514;2023-05-07T09:50:00;5.3;;;3.1;;
69197;SDS011;56311;50.298;8.514;2023-05-07T09:52:00;6.4;;;3.1;;
69197;SDS011;56311;50.298;8.514;2023-05-07T09:54:00;5.4;;;3.3;;
69197;SDS011;56311;50.298;8.514;2023-05-07T09:56:00;5.5;;;3.4;;
69197;SDS011;56311;50.298;8.514;2023-05-07T09:58:00;5.0;;;3.2;;
69197;SDS011;56311;50.298;8.514;2023-05-07T10:00:02;7.2;;;3.1;;
69197;SDS011;56311;50.298;8.514;2023-05-07T10:02:00;5.2;;;3.2;;
69197;SDS011;56311;50.298;8.514;2023-05-07T10:04:01;5.2;;;3.2;;
69197;SDS011;56311;50.298;8.514;2023-05-07T10:06:00;6.0;;;3.0;;
69197;SDS011;56311;50.298;8.514;2023-05-07T10:08:00;5.5;;;3.3;;
69197;SDS011;56311;50.298;8.514;2023-05-07T10:10:00;5.0;;;3.1;;
69197;SDS011;56311;50.298;8.514;2023-05-07T10:12:00;7.2;;;3.3;;
69197;SDS011;56311;50.298;8.514;2023-05-07T10:14:00;7.0;;;3.3;;
69197;SDS011;56311;50.298;8.514;2023-05-07T10:16:00;5.9;;;3.2;;
69197;SDS011;56311;50.298;8.514;2023-05-07T10:18:00;5.9;;;2.9;;
69197;SDS011;56311;50.298;8.514;2023-05-07T10:20:00;5.0;;;2.9;;
69197;SDS011;56311;50.298;8.514;2023-05-07T10:22:01;4.8;;;3.1;;
69197;SDS011;56311;50.298;8.514;2023-05-07T10:24:03;6.6;;;3.2;;
69197;SDS011;56311;50.298;8.514;2023-05-07T10:26:01;4.7;;;2.8;;
69197;SDS011;56311;50.298;8.514;2023-05-07T10:28:01;5.6;;;2.9;;
69197;SDS011;56311;50.298;8.514;2023-05-07T10:30:03;7.9;;;3.1;;
69197;SDS011;56311;50.298;8.514;2023-05-07T10:32:05;5.8;;;3.1;;
69197;SDS011;56311;50.298;8.514;2023-05-07T10:34:00;5.3;;;3.0;;
69197;SDS011;56311;50.298;8.514;2023-05-07T10:36:00;5.7;;;3.0;;
69197;SDS011;56311;50.298;8.514;2023-05-07T10:38:00;5.5;;;3.0;;
69197;SDS011;56311;50.298;8.514;2023-05-07T10:40:00;5.0;;;2.9;;
69197;SDS011;56311;50.298;8.514;2023-05-07T10:42:07;5.2;;;2.9;;
69197;SDS011;56311;50.298;8.514;2023-05-07T10:44:00;5.5;;;3.3;;
69197;SDS011;56311;50.298;8.514;2023-05-07T10:48:08;6.7;;;3.0;;
69197;SDS011;56311;50.298;8.514;2023-05-07T11:00:00;5.9;;;2.5;;
69197;SDS011;56311;50.298;8.514;2023-05-07T11:02:01;5.9;;;2.9;;
69197;SDS011;56311;50.298;8.514;2023-05-07T11:08:01;5.6;;;2.8;;
69197;SDS011;56311;50.298;8.514;2023-05-07T11:10:01;4.8;;;2.5;;
69197;SDS011;56311;50.298;8.514;2023-05-07T11:12:00;4.7;;;2.6;;
69197;SDS011;56311;50.298;8.514;2023-05-07T11:14:00;5.0;;;2.5;;
69197;SDS011;56311;50.298;8.514;2023-05-07T11:16:00;5.2;;;2.2;;
69197;SDS011;56311;50.298;8.514;2023-05-07T11:18:00;4.8;;;2.3;;
69197;SDS011;56311;50.298;8.514;2023-05-07T11:20:01;4.4;;;2.4;;
69197;SDS011;56311;50.298;8.514;2023-05-07T11:22:00;5.2;;;2.4;;
69197;SDS011;56311;50.298;8.514;2023-05-07T11:24:00;4.1;;;2.3;;
69197;SDS011;56311;50.298;8.514;2023-05-07T11:26:00;5.8;;;2.2;;
69197;SDS011;56311;50.298;8.514;2023-05-07T11:28:04;5.1;;;2.2;;
69197;SDS011;56311;50.298;8.514;2023-05-07T11:30:00;4.6;;;1.9;;
69197;SDS011;56311;50.298;8.514;2023-05-07T11:32:00;5.1;;;2.0;;
69197;SDS011;56311;50.298;8.514;2023-05-07T11:34:00;4.2;;;2.3;;
69197;SDS011;56311;50.298;8.514;2023-05-07T11:36:01;4.0;;;2.3;;
69197;SDS011;56311;50.298;8.514;2023-05-07T11:38:00;5.0;;;2.4;;
69197;SDS011;56311;50.298;8.514;2023-05-07T11:40:02;5.1;;;2.6;;
69197;SDS011;56311;50.298;8.514;2023-05-07T11:42:00;5.8;;;2.4;;
69197;SDS011;56311;50.298;8.514;2023-05-07T11:44:00;6.2;;;2.3;;
69197;SDS011;56311;50.298;8.514;2023-05-07T11:46:08;5.0;;;2.1;;
69197;SDS011;56311;50.298;8.514;2023-05-07T11:48:01;5.0;;;2.6;;
69197;SDS011;56311;50.298;8.514;2023-05-07T11:50:02;5.6;;;2.7;;
69197;SDS011;56311;50.298;8.514;2023-05-07T11:52:00;5.1;;;2.4;;
69197;SDS011;56311;50.298;8.514;2023-05-07T11:54:00;5.6;;;2.5;;
69197;SDS011;56311;50.298;8.514;2023-05-07T11:56:00;5.0;;;2.5;;
69197;SDS011;56311;50.298;8.514;2023-05-07T11:58:00;5.3;;;2.3;;
69197;SDS011;56311;50.298;8.514;2023-05-07T12:00:00;4.8;;;2.5;;
69197;SDS011;56311;50.298;8.514;2023-05-07T12:02:00;4.2;;;2.7;;
69197;SDS011;56311;50.298;8.514;2023-05-07T12:04:00;5.2;;;2.6;;
69197;SDS011;56311;50.298;8.514;2023-05-07T12:06:00;4.5;;;2.7;;
69197;SDS011;56311;50.298;8.514;2023-05-07T12:08:00;4.8;;;2.6;;
69197;SDS011;56311;50.298;8.514;2023-05-07T12:10:03;4.6;;;2.3;;
69197;SDS011;56311;50.298;8.514;2023-05-07T12:12:03;4.4;;;2.2;;
69197;SDS011;56311;50.298;8.514;2023-05-07T12:14:00;4.3;;;2.2;;
69197;SDS011;56311;50.298;8.514;2023-05-07T12:16:00;4.8;;;2.3;;
69197;SDS011;56311;50.298;8.514;2023-05-07T12:18:00;4.5;;;2.3;;
69197;SDS011;56311;50.298;8.514;2023-05-07T12:20:00;5.2;;;2.6;;
69197;SDS011;56311;50.298;8.514;2023-05-07T12:22:02;7.5;;;2.6;;
69197;SDS011;56311;50.298;8.514;2023-05-07T12:24:01;4.6;;;2.4;;
69197;SDS011;56311;50.298;8.514;2023-05-07T12:26:00;5.0;;;2.3;;
69197;SDS011;56311;50.298;8.514;2023-05-07T12:28:00;4.5;;;2.4;;
69197;SDS011;56311;50.298;8.514;2023-05-07T12:30:00;5.9;;;2.7;;
69197;SDS011;56311;50.298;8.514;2023-05-07T12:32:00;4.5;;;2.4;;
69197;SDS011;56311;50.298;8.514;2023-05-07T12:34:00;4.1;;;2.4;;
69197;SDS011;56311;50.298;8.514;2023-05-07T12:36:02;6.0;;;2.5;;
69197;SDS011;56311;50.298;8.514;2023-05-07T12:38:00;5.2;;;2.5;;
69197;SDS011;56311;50.298;8.514;2023-05-07T12:40:03;5.4;;;2.5;;
69197;SDS011;56311;50.298;8.514;2023-05-07T12:42:00;4.0;;;2.3;;
69197;SDS011;56311;50.298;8.514;2023-05-07T12:44:00;5.1;;;2.6;;
69197;SDS011;56311;50.298;8.514;2023-05-07T12:46:01;4.7;;;2.3;;